Time;durP1;ratioP1;P1;durP2;ratioP2;P2;SDS_P1;SDS_P2;PMS_P1;PMS_P2;Temp;Humidity;BMP_temperature;BMP_pressure;BME280_temperature;BME280_humidity;BME280_pressure;Samples;Min_cycle;Max_cycle;Signal;HPM_P1;HPM_P2
2023/08/11 00:02:05;;;;;;;5.10;4.43;;;;;;;16.71;96.56;98651.59;4142235;28;20635;-81
2023/08/11 00:04:10;;;;;;;5.60;4.13;;;;;;;16.71;96.63;98650.78;4137433;28;20676;-81
2023/08/11 00:06:16;;;;;;;4.30;3.57;;;;;;;16.66;96.99;98653.81;4154900;28;20653;-81
2023/08/11 00:08:19;;;;;;;7.20;4.57;;;;;;;16.62;96.48;98655.00;4155217;28;20630;-81
2023/08/11 00:10:25;;;;;;;5.03;4.10;;;;;;;16.61;96.05;98652.50;4156379;28;20729;-81
2023/08/11 00:12:28;;;;;;;8.10;5.10;;;;;;;16.61;95.01;98648.09;4157788;28;20648;-81
2023/08/11 00:14:32;;;;;;;5.70;4.20;;;;;;;16.58;96.02;98648.34;4157660;28;20666;-80
2023/08/11 00:16:35;;;;;;;8.20;4.37;;;;;;;16.55;95.87;98645.97;4151454;28;20621;-80
2023/08/11 00:18:40;;;;;;;5.23;4.30;;;;;;;16.50;95.95;98641.22;4151876;28;20726;-81
2023/08/11 00:20:44;;;;;;;4.90;4.40;;;;;;;16.41;96.46;98636.69;4153129;28;20730;-81
2023/08/11 00:22:48;;;;;;;5.40;4.10;;;;;;;16.33;94.17;98636.50;4154720;28;20633;-81
2023/08/11 00:24:50;;;;;;;5.40;4.30;;;;;;;16.30;94.96;98642.84;4128814;28;20725;-81
2023/08/11 00:26:53;;;;;;;6.47;4.60;;;;;;;16.29;95.38;98643.81;4156064;28;20716;-79
2023/08/11 00:28:56;;;;;;;5.10;4.37;;;;;;;16.28;96.62;98633.41;4156265;28;20643;-81
2023/08/11 00:31:00;;;;;;;6.10;4.40;;;;;;;16.29;95.17;98640.34;4150470;28;20696;-80
2023/08/11 00:33:03;;;;;;;5.10;4.40;;;;;;;16.30;95.05;98644.66;4128862;28;20622;-81
2023/08/11 00:35:08;;;;;;;6.40;4.03;;;;;;;16.28;97.66;98633.41;4128887;28;20619;-80
2023/08/11 00:37:12;;;;;;;6.67;4.53;;;;;;;16.28;97.07;98638.66;4141326;28;20718;-80
2023/08/11 00:39:16;;;;;;;5.73;4.47;;;;;;;16.28;95.55;98639.53;4135681;28;20653;-79
2023/08/11 00:41:19;;;;;;;7.60;5.43;;;;;;;16.26;96.75;98640.59;4123969;28;20751;-81
2023/08/11 00:43:22;;;;;;;5.17;4.20;;;;;;;16.24;95.26;98643.34;4140086;28;20630;-81
2023/08/11 00:45:25;;;;;;;5.70;4.27;;;;;;;16.23;96.96;98644.31;4144934;28;20673;-80
2023/08/11 00:47:29;;;;;;;5.00;4.10;;;;;;;16.21;96.65;98643.56;4150744;28;20626;-81
2023/08/11 00:49:33;;;;;;;5.00;4.20;;;;;;;16.20;96.52;98648.97;4153126;28;20645;-79
2023/08/11 00:51:38;;;;;;;6.30;4.87;;;;;;;16.18;97.15;98654.34;4144284;28;20630;-81
2023/08/11 00:53:43;;;;;;;5.80;4.10;;;;;;;16.14;95.84;98646.81;4142885;28;20721;-81
2023/08/11 00:55:47;;;;;;;4.70;3.87;;;;;;;16.11;97.42;98647.91;4154711;28;20654;-81
2023/08/11 00:57:50;;;;;;;6.20;4.57;;;;;;;16.11;97.17;98647.06;4123544;28;20680;-81
2023/08/11 00:59:54;;;;;;;5.10;4.27;;;;;;;16.10;95.76;98642.75;4135098;28;20678;-81
2023/08/11 01:01:57;;;;;;;5.37;4.60;;;;;;;16.11;95.49;98644.44;4132507;28;21181;-81
2023/08/11 01:04:00;;;;;;;5.90;4.50;;;;;;;16.10;97.74;98646.25;4134785;28;20656;-80
2023/08/11 01:06:10;;;;;;;4.63;3.67;;;;;;;16.07;96.95;98650.91;4131998;28;20638;-81
2023/08/11 01:08:22;;;;;;;5.20;3.97;;;;;;;16.02;96.38;98648.66;4127490;28;20629;-81
2023/08/11 01:10:34;;;;;;;6.40;4.90;;;;;;;15.99;95.37;98652.50;4144049;28;21214;-80
2023/08/11 01:12:42;;;;;;;7.80;4.50;;;;;;;15.96;96.26;98645.69;4134586;28;20615;-80
2023/08/11 01:14:49;;;;;;;5.97;4.80;;;;;;;15.95;95.67;98651.94;4141576;28;20622;-80
2023/08/11 01:16:54;;;;;;;5.63;4.80;;;;;;;15.95;96.34;98640.56;4127821;28;20630;-80
2023/08/11 01:18:58;;;;;;;7.47;4.20;;;;;;;15.93;97.57;98651.19;4144629;28;20645;-81
2023/08/11 01:21:04;;;;;;;6.13;4.37;;;;;;;15.94;96.68;98644.16;4119629;28;20639;-82
2023/08/11 01:23:07;;;;;;;9.60;4.63;;;;;;;15.93;97.13;98651.19;4135691;28;20635;-80
2023/08/11 01:25:12;;;;;;;5.50;4.30;;;;;;;15.90;98.04;98650.63;4153397;28;20666;-81
2023/08/11 01:27:16;;;;;;;6.00;4.50;;;;;;;15.85;97.10;98650.16;4143183;28;20767;-79
2023/08/11 01:29:20;;;;;;;4.53;3.83;;;;;;;15.78;95.85;98655.06;4133295;28;20698;-81
2023/08/11 01:31:24;;;;;;;4.93;4.03;;;;;;;15.72;96.95;98645.03;4133479;28;20611;-80
2023/08/11 01:33:28;;;;;;;4.43;3.80;;;;;;;15.70;95.58;98648.75;4124269;28;20642;-81
2023/08/11 01:35:31;;;;;;;5.40;3.73;;;;;;;15.70;97.69;98646.94;4155826;28;20686;-81
2023/08/11 01:37:45;;;;;;;5.47;4.37;;;;;;;15.71;97.46;98653.91;4159862;28;20736;-81
2023/08/11 01:39:48;;;;;;;5.80;4.43;;;;;;;15.70;97.66;98656.66;4144301;28;20616;-80
2023/08/11 01:41:53;;;;;;;5.20;4.70;;;;;;;15.68;97.89;98659.41;4155043;28;20628;-81
2023/08/11 01:43:56;;;;;;;5.17;4.30;;;;;;;15.69;98.49;98662.84;4136819;28;21261;-80
2023/08/11 01:46:00;;;;;;;5.67;3.77;;;;;;;15.70;96.94;98657.47;4138721;28;20656;-81
2023/08/11 01:48:04;;;;;;;5.60;4.53;;;;;;;15.68;97.79;98664.66;4128183;28;20712;-80
2023/08/11 01:50:09;;;;;;;5.30;4.53;;;;;;;15.66;98.76;98661.28;4124909;28;20639;-81
2023/08/11 01:52:13;;;;;;;6.87;4.93;;;;;;;15.66;98.14;98656.03;4159295;28;20621;-80
2023/08/11 01:54:16;;;;;;;8.10;5.53;;;;;;;15.67;98.74;98657.72;4121179;28;21214;-80
2023/08/11 01:56:20;;;;;;;5.90;4.40;;;;;;;15.64;96.99;98657.13;4137896;28;20636;-80
2023/08/11 01:58:25;;;;;;;7.87;5.10;;;;;;;15.62;97.97;98654.63;4135046;28;20721;-81
2023/08/11 02:00:28;;;;;;;6.83;4.70;;;;;;;15.62;98.19;98659.88;4117831;28;20644;-80
2023/08/11 02:02:32;;;;;;;6.30;5.00;;;;;;;15.63;98.02;98656.28;4139358;28;20626;-81
2023/08/11 02:04:35;;;;;;;5.03;4.27;;;;;;;15.63;97.31;98656.28;4140977;28;21083;-81
2023/08/11 02:06:39;;;;;;;6.03;4.63;;;;;;;15.62;97.15;98652.00;4154412;28;20633;-81
2023/08/11 02:08:42;;;;;;;9.50;4.30;;;;;;;15.60;96.68;98653.06;4138006;28;20632;-81
2023/08/11 02:10:46;;;;;;;5.90;4.40;;;;;;;15.60;97.99;98660.94;4157385;28;21043;-80
2023/08/11 02:12:49;;;;;;;5.27;4.30;;;;;;;15.58;98.29;98652.34;4146877;28;20630;-80
2023/08/11 02:14:54;;;;;;;5.43;4.60;;;;;;;15.57;97.25;98655.94;4142330;28;20630;-80
2023/08/11 02:16:57;;;;;;;7.37;4.67;;;;;;;15.54;96.17;98650.09;4142328;28;20627;-81
2023/08/11 02:19:01;;;;;;;5.93;4.00;;;;;;;15.49;96.32;98653.09;4140961;28;20848;-81
2023/08/11 02:21:06;;;;;;;4.80;4.33;;;;;;;15.45;97.01;98654.28;4141125;28;20621;-81
2023/08/11 02:23:10;;;;;;;5.50;4.50;;;;;;;15.44;96.11;98654.41;4152339;28;21048;-81
2023/08/11 02:25:14;;;;;;;7.83;4.70;;;;;;;15.43;97.25;98647.47;4142124;28;20756;-81
2023/08/11 02:27:18;;;;;;;6.67;4.60;;;;;;;15.42;96.36;98649.25;4156495;28;20629;-81
2023/08/11 02:29:21;;;;;;;5.97;4.50;;;;;;;15.39;98.71;98652.13;4146203;28;20626;-78
2023/08/11 02:31:25;;;;;;;6.13;5.13;;;;;;;15.38;98.18;98645.22;4156266;28;20644;-81
2023/08/11 02:33:29;;;;;;;4.80;4.00;;;;;;;15.37;98.54;98653.22;4126695;28;21183;-81
2023/08/11 02:35:32;;;;;;;5.77;4.77;;;;;;;15.35;96.54;98649.84;4124930;28;20651;-80
2023/08/11 02:37:34;;;;;;;4.40;3.90;;;;;;;15.32;98.71;98658.84;4153244;28;20652;-81
2023/08/11 02:39:37;;;;;;;4.90;4.27;;;;;;;15.31;97.66;98651.06;4155398;28;20644;-81
2023/08/11 02:41:42;;;;;;;5.63;4.30;;;;;;;15.30;98.25;98652.03;4145878;28;20639;-81
2023/08/11 02:43:44;;;;;;;7.40;4.27;;;;;;;15.32;97.67;98660.59;4157417;28;20653;-81
2023/08/11 02:45:48;;;;;;;6.00;4.27;;;;;;;15.32;97.51;98657.97;4152217;28;21447;-81
2023/08/11 02:47:53;;;;;;;5.23;4.23;;;;;;;15.33;97.61;98662.28;4124056;28;20635;-81
2023/08/11 02:49:55;;;;;;;8.43;4.87;;;;;;;15.30;97.98;98662.53;4146828;28;20807;-80
2023/08/11 02:51:58;;;;;;;5.93;4.73;;;;;;;15.27;97.69;98657.50;4141638;28;20626;-79
2023/08/11 02:54:02;;;;;;;5.60;4.77;;;;;;;15.25;97.55;98655.00;4135462;28;20632;-81
2023/08/11 02:56:09;;;;;;;4.87;4.13;;;;;;;15.24;97.95;98658.56;4136164;28;21294;-81
2023/08/11 02:58:12;;;;;;;6.33;4.90;;;;;;;15.21;97.09;98652.72;4156192;28;20633;-79
2023/08/11 03:00:15;;;;;;;4.77;4.27;;;;;;;15.19;98.18;98660.72;4139198;28;20642;-81
2023/08/11 03:02:18;;;;;;;5.23;4.10;;;;;;;15.16;98.44;98647.81;4146507;28;20668;-78
2023/08/11 03:04:23;;;;;;;7.17;4.33;;;;;;;15.16;98.43;98649.59;4133582;28;20682;-81
2023/08/11 03:06:26;;;;;;;5.40;4.50;;;;;;;15.15;98.48;98654.03;4139799;28;20662;-81
2023/08/11 03:08:31;;;;;;;5.80;4.10;;;;;;;15.15;98.64;98654.03;4142060;28;21115;-80
2023/08/11 03:10:35;;;;;;;6.53;4.80;;;;;;;15.14;96.70;98656.78;4123605;28;20632;-80
2023/08/11 03:12:58;;;;;;;5.63;4.43;;;;;;;15.11;98.82;98652.59;4135509;28;20635;-73
2023/08/11 03:15:02;;;;;;;7.70;4.50;;;;;;;15.10;97.66;98652.69;4143609;28;20635;-73
2023/08/11 03:17:06;;;;;;;5.57;4.60;;;;;;;15.09;98.56;98658.91;4140679;28;20639;-73
2023/08/11 03:19:12;;;;;;;5.73;4.20;;;;;;;15.09;97.31;98656.28;4131596;28;20657;-74
2023/08/11 03:21:16;;;;;;;5.33;4.27;;;;;;;15.09;98.74;98653.66;4135067;28;20627;-73
2023/08/11 03:23:24;;;;;;;6.27;4.60;;;;;;;15.06;98.70;98653.88;4145317;28;20618;-72
2023/08/11 03:25:28;;;;;;;5.40;4.60;;;;;;;15.03;98.81;98656.75;4136843;28;20634;-73
2023/08/11 03:27:32;;;;;;;5.93;4.63;;;;;;;15.02;98.73;98656.88;4134017;28;20769;-73
2023/08/11 03:29:35;;;;;;;5.47;4.40;;;;;;;15.02;98.41;98652.47;4145352;28;20642;-72
2023/08/11 03:31:38;;;;;;;5.50;4.30;;;;;;;15.02;98.95;98656.88;4141677;28;20645;-73
2023/08/11 03:33:43;;;;;;;5.80;4.80;;;;;;;15.03;97.41;98662.00;4132370;28;20641;-73
2023/08/11 03:35:49;;;;;;;5.93;4.60;;;;;;;15.04;97.36;98660.22;4120999;28;20623;-72
2023/08/11 03:37:54;;;;;;;6.27;4.80;;;;;;;15.00;98.39;98659.59;4151068;28;20684;-72
2023/08/11 03:39:58;;;;;;;5.83;4.40;;;;;;;14.99;97.18;98665.84;4132753;28;20635;-72
2023/08/11 03:42:01;;;;;;;6.00;4.33;;;;;;;14.96;97.43;98655.56;4145412;28;20626;-74
2023/08/11 03:44:06;;;;;;;4.73;4.10;;;;;;;14.94;98.49;98657.44;4146156;28;20636;-72
2023/08/11 03:46:10;;;;;;;5.80;4.50;;;;;;;14.92;98.66;98655.91;4142644;28;20680;-72
2023/08/11 03:48:14;;;;;;;5.03;4.30;;;;;;;14.91;98.30;98657.69;4133363;28;20626;-73
2023/08/11 03:50:19;;;;;;;5.57;4.63;;;;;;;14.88;98.53;98657.09;4141192;28;20659;-73
2023/08/11 03:52:24;;;;;;;5.70;4.77;;;;;;;14.87;98.39;98661.53;4120950;28;20749;-72
2023/08/11 03:54:29;;;;;;;5.40;4.40;;;;;;;14.86;97.40;98657.22;4143946;28;21259;-72
2023/08/11 03:56:50;;;;;;;5.87;4.33;;;;;;;14.86;98.50;98666.88;4158485;28;21193;-73
2023/08/11 03:58:53;;;;;;;6.23;4.50;;;;;;;14.85;98.66;98667.84;4145542;28;20736;-73
2023/08/11 04:00:57;;;;;;;5.37;3.80;;;;;;;14.84;98.23;98661.75;4139126;28;20621;-73
2023/08/11 04:03:01;;;;;;;6.20;5.10;;;;;;;14.84;98.83;98669.63;4136488;28;20634;-72
2023/08/11 04:05:04;;;;;;;4.47;4.00;;;;;;;14.82;98.07;98666.25;4155882;28;20667;-74
2023/08/11 04:07:08;;;;;;;5.77;4.87;;;;;;;14.81;97.77;98667.25;4137964;28;20666;-72
2023/08/11 04:09:12;;;;;;;6.57;3.80;;;;;;;14.80;98.13;98657.69;4139893;28;20634;-74
2023/08/11 04:11:17;;;;;;;5.47;4.40;;;;;;;14.77;98.22;98665.78;4138050;28;20652;-72
2023/08/11 04:13:20;;;;;;;9.97;4.47;;;;;;;14.76;98.48;98661.50;4139444;28;20656;-72
2023/08/11 04:15:26;;;;;;;6.37;4.60;;;;;;;14.76;98.26;98661.50;4123205;28;20988;-72
2023/08/11 04:17:31;;;;;;;6.97;4.87;;;;;;;14.77;98.20;98657.09;4139719;28;20622;-72
2023/08/11 04:19:35;;;;;;;5.70;4.40;;;;;;;14.76;97.75;98658.03;4154876;28;20629;-74
2023/08/11 04:21:39;;;;;;;5.63;4.70;;;;;;;14.74;97.89;98658.13;4140314;28;20633;-73
2023/08/11 04:23:42;;;;;;;4.30;3.80;;;;;;;14.74;97.91;98660.75;4149312;28;20640;-73
2023/08/11 04:25:46;;;;;;;5.40;4.23;;;;;;;14.74;98.74;98660.75;4121161;28;20630;-74
2023/08/11 04:27:52;;;;;;;8.93;4.70;;;;;;;14.75;99.48;98670.31;4140458;28;21215;-72
2023/08/11 04:29:55;;;;;;;5.27;4.53;;;;;;;14.78;99.10;98669.28;4152969;28;20625;-72
2023/08/11 04:32:02;;;;;;;6.10;4.80;;;;;;;14.80;99.48;98665.56;4144235;28;20641;-72
2023/08/11 04:34:06;;;;;;;7.53;4.93;;;;;;;14.82;99.15;98661.00;4138475;28;20652;-72
2023/08/11 04:36:09;;;;;;;6.13;5.10;;;;;;;14.86;99.49;98672.16;4144414;28;20658;-73
2023/08/11 04:38:13;;;;;;;4.90;4.30;;;;;;;14.86;99.22;98672.16;4138359;28;20657;-73
2023/08/11 04:40:17;;;;;;;6.80;4.80;;;;;;;14.86;99.55;98669.50;4140731;28;21034;-73
2023/08/11 04:42:24;;;;;;;6.40;5.23;;;;;;;14.86;97.90;98657.22;4137024;28;20614;-73
2023/08/11 04:44:30;;;;;;;5.70;4.70;;;;;;;14.89;99.36;98664.84;4152563;28;20629;-73
2023/08/11 04:46:33;;;;;;;5.60;4.73;;;;;;;14.91;99.09;98676.06;4144313;28;20691;-72
2023/08/11 04:48:37;;;;;;;6.07;4.70;;;;;;;14.94;98.07;98678.47;4131883;28;20638;-73
2023/08/11 04:50:40;;;;;;;6.73;5.40;;;;;;;14.97;99.44;98672.16;4142547;28;21000;-72
2023/08/11 04:52:43;;;;;;;5.97;4.33;;;;;;;14.98;97.90;98677.28;4139260;28;20621;-72
2023/08/11 04:54:48;;;;;;;6.20;5.33;;;;;;;15.01;99.28;98682.31;4136497;28;20657;-73
2023/08/11 04:56:52;;;;;;;5.93;4.80;;;;;;;15.04;98.61;98676.81;4137043;28;20726;-73
2023/08/11 04:58:55;;;;;;;6.70;5.00;;;;;;;15.07;98.43;98674.78;4144417;28;20692;-72
2023/08/11 05:01:02;;;;;;;5.87;4.53;;;;;;;15.10;98.26;98678.97;4154331;28;20618;-73
2023/08/11 05:03:06;;;;;;;6.97;4.87;;;;;;;15.12;98.24;98677.91;4152898;28;20664;-72
2023/08/11 05:05:09;;;;;;;7.30;4.30;;;;;;;15.14;98.83;98675.16;4152004;28;20684;-73
2023/08/11 05:07:13;;;;;;;6.00;4.70;;;;;;;15.18;99.86;98674.00;4138548;28;20725;-74
2023/08/11 05:09:16;;;;;;;6.70;5.30;;;;;;;15.22;99.36;98672.81;4152948;28;20660;-73
2023/08/11 05:11:19;;;;;;;4.50;3.97;;;;;;;15.26;99.29;98682.09;4150861;28;20644;-73
2023/08/11 05:13:23;;;;;;;5.07;4.43;;;;;;;15.29;98.43;98681.88;4125844;28;20633;-73
2023/08/11 05:15:26;;;;;;;7.33;4.93;;;;;;;15.33;99.92;98678.88;4154588;28;20633;-72
2023/08/11 05:17:31;;;;;;;5.20;4.70;;;;;;;15.38;98.99;98678.53;4152381;28;20700;-73
2023/08/11 05:19:36;;;;;;;5.60;4.50;;;;;;;15.42;98.34;98678.19;4137799;28;20638;-73
2023/08/11 05:21:39;;;;;;;5.93;4.67;;;;;;;15.45;98.83;98691.09;4137594;28;20641;-72
2023/08/11 05:23:43;;;;;;;6.57;5.13;;;;;;;15.50;97.90;98693.34;4151438;28;20641;-72
2023/08/11 05:25:46;;;;;;;7.00;4.93;;;;;;;15.56;97.36;98697.19;4138278;28;20665;-73
2023/08/11 05:27:49;;;;;;;6.30;4.83;;;;;;;15.64;98.64;98693.94;4150191;28;20749;-73
2023/08/11 05:29:54;;;;;;;6.33;5.27;;;;;;;15.76;96.58;98693.81;4136208;28;20646;-73
2023/08/11 05:31:58;;;;;;;9.57;5.40;;;;;;;15.96;98.63;98706.22;4152954;28;20626;-73
2023/08/11 05:34:02;;;;;;;8.50;4.63;;;;;;;16.17;95.77;98696.59;4153333;28;21060;-72
2023/08/11 05:36:06;;;;;;;6.27;4.70;;;;;;;16.36;95.64;98695.00;4135814;28;20635;-74
2023/08/11 05:38:09;;;;;;;7.33;4.70;;;;;;;16.53;94.50;98703.19;4143088;28;20657;-73
2023/08/11 05:40:16;;;;;;;8.30;4.50;;;;;;;16.70;93.14;98705.28;4153623;28;20629;-73
2023/08/11 05:42:18;;;;;;;7.03;5.07;;;;;;;16.94;93.62;98700.56;4121011;28;20665;-74
2023/08/11 05:44:21;;;;;;;5.83;4.67;;;;;;;17.26;93.73;98712.75;4157539;28;21174;-74
2023/08/11 05:46:25;;;;;;;5.10;4.47;;;;;;;17.57;91.35;98719.69;4138067;28;20747;-73
2023/08/11 05:48:28;;;;;;;5.10;4.33;;;;;;;17.87;91.24;98723.16;4157753;28;20646;-74
2023/08/11 05:50:32;;;;;;;6.57;5.03;;;;;;;18.15;89.98;98728.53;4139041;28;20625;-72
2023/08/11 05:52:36;;;;;;;5.20;4.20;;;;;;;18.42;89.47;98724.28;4155378;28;20636;-74
2023/08/11 05:54:39;;;;;;;5.33;4.80;;;;;;;18.72;88.46;98729.44;4155413;28;20651;-73
2023/08/11 05:56:42;;;;;;;5.70;4.50;;;;;;;19.00;86.96;98728.59;4153222;28;20652;-73
2023/08/11 05:58:46;;;;;;;6.60;4.70;;;;;;;19.20;86.01;98724.97;4142988;28;20724;-74
2023/08/11 06:00:49;;;;;;;5.83;4.83;;;;;;;19.41;84.46;98734.41;4158431;28;20644;-73
2023/08/11 06:02:54;;;;;;;5.00;4.50;;;;;;;19.60;84.11;98734.31;4121866;28;21211;-73
2023/08/11 06:04:57;;;;;;;5.83;4.90;;;;;;;19.81;83.78;98734.94;4148288;28;20667;-74
2023/08/11 06:07:02;;;;;;;5.77;4.70;;;;;;;20.00;84.86;98733.09;4156453;28;20647;-74
2023/08/11 06:09:06;;;;;;;6.40;4.40;;;;;;;20.13;83.13;98734.41;4154696;28;20640;-73
2023/08/11 06:11:10;;;;;;;5.57;4.57;;;;;;;20.27;81.71;98733.06;4155715;28;20654;-73
2023/08/11 06:13:13;;;;;;;5.10;4.20;;;;;;;20.43;82.35;98737.56;4141323;28;20631;-75
2023/08/11 06:15:16;;;;;;;5.73;4.90;;;;;;;20.67;81.77;98735.16;4159823;28;20644;-73
2023/08/11 06:17:19;;;;;;;6.13;4.60;;;;;;;20.86;81.64;98735.03;4144242;28;20632;-73
2023/08/11 06:19:24;;;;;;;7.20;6.50;;;;;;;21.03;80.50;98736.81;4162857;28;21038;-74
2023/08/11 06:21:28;;;;;;;5.07;4.43;;;;;;;21.19;79.48;98736.97;4152943;28;20668;-73
2023/08/11 06:23:32;;;;;;;4.90;4.40;;;;;;;21.30;79.82;98734.88;4157660;28;21073;-75
2023/08/11 06:25:36;;;;;;;6.10;4.70;;;;;;;21.46;80.18;98738.50;4141353;28;20635;-74
2023/08/11 06:27:40;;;;;;;6.73;4.53;;;;;;;21.63;80.09;98727.00;4157899;28;20657;-73
2023/08/11 06:29:43;;;;;;;4.23;3.83;;;;;;;21.83;79.82;98728.41;4156920;28;20922;-73
2023/08/11 06:31:47;;;;;;;6.53;4.70;;;;;;;22.02;78.82;98741.47;4145195;28;20657;-74
2023/08/11 06:33:51;;;;;;;5.57;4.10;;;;;;;22.19;80.39;98730.75;4143302;28;20631;-74
2023/08/11 06:35:54;;;;;;;6.60;5.00;;;;;;;22.40;80.12;98740.00;4138404;28;20711;-73
2023/08/11 06:37:58;;;;;;;5.10;4.60;;;;;;;22.58;78.65;98738.06;4135597;28;20628;-75
2023/08/11 06:40:03;;;;;;;5.43;3.93;;;;;;;22.73;78.24;98733.72;4155291;28;20635;-73
2023/08/11 06:42:06;;;;;;;6.13;4.37;;;;;;;22.84;76.05;98730.78;4156365;28;20968;-73
2023/08/11 06:44:39;;;;;;;4.87;4.37;;;;;;;22.96;75.53;98726.81;4150281;28;21052;-81
2023/08/11 06:46:42;;;;;;;5.80;4.03;;;;;;;22.90;75.01;98720.28;4156902;28;20634;-81
2023/08/11 06:48:46;;;;;;;6.57;4.57;;;;;;;22.93;76.09;98732.44;4139371;28;21228;-82
2023/08/11 06:50:49;;;;;;;5.70;4.40;;;;;;;23.06;76.35;98733.63;4145349;28;20722;-81
2023/08/11 06:52:53;;;;;;;4.80;4.30;;;;;;;23.27;76.02;98733.94;4145554;28;20711;-81
2023/08/11 06:54:56;;;;;;;4.43;3.70;;;;;;;23.40;74.81;98736.94;4144519;28;20631;-80
2023/08/11 06:57:02;;;;;;;4.40;4.00;;;;;;;23.45;73.93;98735.41;4159087;28;20661;-82
2023/08/11 06:59:06;;;;;;;5.87;4.07;;;;;;;23.59;74.56;98745.41;4154555;28;20678;-82
2023/08/11 07:01:10;;;;;;;3.67;3.20;;;;;;;23.71;74.78;98741.44;4144309;28;21020;-82
2023/08/11 07:03:16;;;;;;;4.30;3.73;;;;;;;23.75;71.83;98734.72;4152757;28;20637;-81
2023/08/11 07:05:20;;;;;;;5.80;3.60;;;;;;;23.84;73.94;98731.03;4157098;28;20641;-81
2023/08/11 07:07:22;;;;;;;4.07;3.60;;;;;;;24.05;74.69;98733.97;4140168;28;21059;-81
2023/08/11 07:09:25;;;;;;;4.10;3.47;;;;;;;24.22;73.68;98736.38;4145969;28;20780;-81
2023/08/11 07:11:28;;;;;;;4.87;3.60;;;;;;;24.38;73.32;98736.34;4145555;28;20617;-82
2023/08/11 07:13:33;;;;;;;5.93;3.67;;;;;;;24.48;72.19;98747.66;4145886;28;20638;-81
2023/08/11 07:15:40;;;;;;;5.50;3.80;;;;;;;24.62;71.93;98737.03;4156403;28;20688;-82
2023/08/11 07:17:44;;;;;;;4.03;3.43;;;;;;;24.78;72.45;98735.09;4152519;28;20639;-81
2023/08/11 07:19:47;;;;;;;7.13;3.40;;;;;;;24.82;69.34;98735.56;4151012;28;20674;-79
2023/08/11 07:21:50;;;;;;;5.17;3.83;;;;;;;24.90;68.72;98735.53;4157135;28;20630;-82
2023/08/11 07:23:54;;;;;;;4.50;3.50;;;;;;;24.98;69.67;98741.63;4154348;28;21242;-81
2023/08/11 07:25:57;;;;;;;6.03;3.20;;;;;;;25.13;70.91;98747.06;4154542;28;20677;-80
2023/08/11 07:28:00;;;;;;;5.07;4.13;;;;;;;25.26;69.36;98746.28;4154590;28;20663;-81
2023/08/11 07:30:07;;;;;;;4.23;3.47;;;;;;;25.37;68.73;98737.00;4144792;28;20624;-81
2023/08/11 07:32:10;;;;;;;4.60;3.20;;;;;;;25.52;68.12;98743.22;4156168;28;20694;-81
2023/08/11 07:34:13;;;;;;;4.67;3.40;;;;;;;25.62;66.07;98737.41;4152505;28;20635;-82
2023/08/11 07:36:16;;;;;;;3.70;3.20;;;;;;;25.72;65.27;98740.66;4151134;28;21017;-82
2023/08/11 07:38:20;;;;;;;4.57;3.40;;;;;;;25.88;66.80;98737.84;4153220;28;21098;-80
2023/08/11 07:40:23;;;;;;;4.40;3.17;;;;;;;26.15;70.33;98751.38;4155099;28;20629;-81
2023/08/11 07:42:26;;;;;;;4.83;3.23;;;;;;;26.35;70.41;98749.81;4137603;28;20641;-81
2023/08/11 07:44:30;;;;;;;3.83;3.40;;;;;;;26.49;67.15;98748.13;4154652;28;20642;-82
2023/08/11 07:46:35;;;;;;;4.07;3.13;;;;;;;26.62;68.61;98746.44;4154912;28;20707;-82
2023/08/11 07:48:38;;;;;;;3.57;3.13;;;;;;;26.76;68.13;98750.94;4150398;28;20710;-81
2023/08/11 07:50:43;;;;;;;4.07;3.27;;;;;;;26.90;64.22;98752.75;4152879;28;20703;-81
2023/08/11 07:52:45;;;;;;;4.80;3.40;;;;;;;27.00;65.11;98750.59;4154983;28;20670;-82
2023/08/11 07:54:48;;;;;;;5.23;3.53;;;;;;;27.06;64.43;98748.84;4139992;28;20645;-80
2023/08/11 07:56:52;;;;;;;3.93;3.53;;;;;;;27.16;65.65;98749.31;4155570;28;20634;-81
2023/08/11 07:58:55;;;;;;;5.00;4.00;;;;;;;27.27;66.21;98751.50;4136501;28;20631;-80
2023/08/11 08:00:58;;;;;;;6.57;3.07;;;;;;;27.40;64.66;98745.44;4114388;28;20655;-81
2023/08/11 08:03:04;;;;;;;4.10;3.57;;;;;;;27.51;66.90;98751.09;4145503;28;20664;-82
2023/08/11 08:05:09;;;;;;;4.27;3.33;;;;;;;27.57;64.26;98748.50;4155797;28;20709;-82
2023/08/11 08:07:15;;;;;;;3.43;3.13;;;;;;;27.60;66.43;98748.09;4148703;28;20694;-82
2023/08/11 08:09:19;;;;;;;3.50;3.13;;;;;;;27.68;64.37;98752.47;4154081;28;21024;-81
2023/08/11 08:11:22;;;;;;;3.50;3.00;;;;;;;27.73;64.88;98747.38;4152338;28;20641;-80
2023/08/11 08:13:26;;;;;;;3.90;3.50;;;;;;;27.83;65.01;98753.19;4147358;28;20626;-80
2023/08/11 08:15:29;;;;;;;4.70;3.40;;;;;;;27.87;64.95;98747.25;4154687;28;20654;-82
2023/08/11 08:17:32;;;;;;;3.43;2.80;;;;;;;27.87;65.02;98739.19;4128432;28;20713;-81
2023/08/11 08:19:36;;;;;;;4.50;3.17;;;;;;;27.96;67.05;98748.75;4151644;28;20746;-81
2023/08/11 08:21:41;;;;;;;4.43;3.10;;;;;;;28.12;65.05;98745.78;4157696;28;21018;-82
2023/08/11 08:23:44;;;;;;;4.47;2.97;;;;;;;28.25;66.94;98754.75;4157409;28;20628;-82
2023/08/11 08:25:47;;;;;;;3.90;3.13;;;;;;;28.40;68.02;98758.13;4160910;28;20644;-82
2023/08/11 08:27:51;;;;;;;3.63;3.00;;;;;;;28.46;67.26;98753.78;4156129;28;21041;-81
2023/08/11 08:30:11;;;;;;;3.40;3.10;;;;;;;28.39;63.82;98747.59;4151890;28;21617;-82
2023/08/11 08:32:19;;;;;;;3.30;2.57;;;;;;;28.35;63.61;98754.38;4154085;28;20623;-81
2023/08/11 08:34:23;;;;;;;4.20;2.87;;;;;;;28.47;64.20;98752.78;4156466;28;20630;-81
2023/08/11 08:36:27;;;;;;;3.97;3.33;;;;;;;28.58;64.65;98745.81;4141100;28;21055;-80
2023/08/11 08:38:30;;;;;;;3.63;3.07;;;;;;;28.69;66.36;98755.16;4135485;28;20620;-82
2023/08/11 08:40:36;;;;;;;4.10;3.07;;;;;;;28.77;65.18;98754.97;4144744;28;20615;-82
2023/08/11 08:42:41;;;;;;;3.40;3.10;;;;;;;28.84;67.16;98743.22;4155930;28;20642;-82
2023/08/11 08:44:46;;;;;;;3.77;3.10;;;;;;;28.86;63.14;98748.41;4135459;28;20629;-81
2023/08/11 08:46:51;;;;;;;3.70;2.73;;;;;;;28.87;62.43;98748.19;4153902;28;20620;-81
2023/08/11 08:49:02;;;;;;;2.90;2.53;;;;;;;28.86;63.12;98743.84;4157508;28;20696;-82
2023/08/11 08:51:09;;;;;;;4.03;3.63;;;;;;;28.93;62.75;98738.47;4155537;28;20642;-82
2023/08/11 08:53:14;;;;;;;3.53;3.23;;;;;;;29.04;63.71;98750.28;4137184;28;21111;-82
2023/08/11 08:55:18;;;;;;;3.57;2.80;;;;;;;29.09;61.64;98745.16;4123167;28;20632;-82
2023/08/11 08:57:22;;;;;;;3.90;3.13;;;;;;;29.12;63.66;98739.34;4151330;28;20632;-82
2023/08/11 08:59:25;;;;;;;2.80;2.50;;;;;;;29.23;63.13;98736.09;4152272;28;20968;-81
2023/08/11 09:01:28;;;;;;;3.70;2.83;;;;;;;29.28;63.24;98732.78;4155114;28;20629;-82
2023/08/11 09:03:33;;;;;;;4.20;3.00;;;;;;;29.32;62.24;98734.00;4122516;28;20621;-75
2023/08/11 09:05:37;;;;;;;3.40;2.87;;;;;;;29.33;61.26;98731.09;4156564;28;20642;-73
2023/08/11 09:07:40;;;;;;;2.80;2.33;;;;;;;29.35;62.32;98728.22;4143117;28;20622;-74
2023/08/11 09:09:44;;;;;;;3.03;2.73;;;;;;;29.42;60.55;98729.88;4151171;28;20697;-74
2023/08/11 09:11:49;;;;;;;3.50;2.60;;;;;;;29.48;60.44;98729.03;4138718;28;20630;-74
2023/08/11 09:13:52;;;;;;;3.30;2.53;;;;;;;29.51;59.07;98720.56;4153297;28;20628;-74
2023/08/11 09:15:55;;;;;;;3.00;2.57;;;;;;;29.52;59.70;98723.03;4137052;28;21253;-74
2023/08/11 09:18:01;;;;;;;3.07;2.47;;;;;;;29.55;61.15;98717.25;4155265;28;20688;-74
2023/08/11 09:20:06;;;;;;;2.87;2.47;;;;;;;29.56;60.42;98710.84;4144255;28;20654;-74
2023/08/11 09:22:10;;;;;;;2.70;2.30;;;;;;;29.66;58.57;98713.91;4157021;28;20613;-76
2023/08/11 09:24:15;;;;;;;3.33;2.80;;;;;;;29.69;57.37;98710.81;4135391;28;20630;-74
2023/08/11 09:26:20;;;;;;;2.90;2.30;;;;;;;29.66;56.87;98713.91;4142999;28;20622;-74
2023/08/11 09:28:23;;;;;;;3.43;2.90;;;;;;;29.56;56.43;98701.94;4156682;28;21056;-75
2023/08/11 09:30:30;;;;;;;3.70;2.33;;;;;;;29.58;56.61;98703.38;4137029;28;20796;-74
2023/08/11 09:32:33;;;;;;;2.87;2.23;;;;;;;29.65;58.80;98708.75;4152995;28;20711;-74
2023/08/11 09:34:39;;;;;;;2.70;2.30;;;;;;;29.71;58.04;98703.38;4143863;28;21200;-74
2023/08/11 09:36:43;;;;;;;3.73;2.83;;;;;;;29.74;57.94;98699.41;4137859;28;20715;-75
2023/08/11 09:38:46;;;;;;;3.40;2.60;;;;;;;29.75;58.85;98698.41;4150132;28;21253;-74
2023/08/11 09:40:50;;;;;;;4.30;3.03;;;;;;;29.76;56.79;98700.06;4143213;28;21193;-74
2023/08/11 09:42:56;;;;;;;3.00;2.70;;;;;;;29.68;59.94;98694.88;4152734;28;20625;-74
2023/08/11 09:44:59;;;;;;;2.93;2.63;;;;;;;29.70;59.62;98690.94;4152327;28;20744;-75
2023/08/11 09:47:03;;;;;;;6.20;3.23;;;;;;;29.74;59.52;98692.19;4142681;28;21209;-74